Time;durP1;ratioP1;P1;durP2;ratioP2;P2;SDS_P1;SDS_P2;PMS_P1;PMS_P2;Temp;Humidity;BMP_temperature;BMP_pressure;BME280_temperature;BME280_humidity;BME280_pressure;Samples;Min_cycle;Max_cycle;Signal;HPM_P1;HPM_P2
2022/05/08 00:00:35;;;;;;;9.07;2.40;;;;;;;;;;5044432;28;20045;-74
2022/05/08 00:03:01;;;;;;;8.38;2.63;;;;;;;;;;5028199;28;20444;-74
2022/05/08 00:05:27;;;;;;;6.15;1.67;;;;;;;;;;5044701;28;20052;-74
2022/05/08 00:07:53;;;;;;;7.68;2.13;;;;;;;;;;5044651;28;20512;-74
2022/05/08 00:10:20;;;;;;;9.18;2.50;;;;;;;;;;5045680;28;20088;-75
2022/05/08 00:12:46;;;;;;;7.72;2.38;;;;;;;;;;5044405;28;20646;-74
2022/05/08 00:15:12;;;;;;;7.20;2.03;;;;;;;;;;5044437;28;20648;-74
2022/05/08 00:17:38;;;;;;;8.90;2.15;;;;;;;;;;5044947;28;20098;-74
2022/05/08 00:20:06;;;;;;;9.18;2.55;;;;;;;;;;5043240;28;20478;-74
2022/05/08 00:22:32;;;;;;;8.50;2.35;;;;;;;;;;5044008;28;20132;-74
2022/05/08 00:24:58;;;;;;;6.35;2.10;;;;;;;;;;5044316;28;20076;-74
2022/05/08 00:27:24;;;;;;;6.88;1.90;;;;;;;;;;5044101;28;20095;-74
2022/05/08 00:29:50;;;;;;;8.25;2.42;;;;;;;;;;5044527;28;20045;-74
2022/05/08 00:32:16;;;;;;;6.78;1.92;;;;;;;;;;5044089;28;20060;-74
2022/05/08 00:34:42;;;;;;;9.00;2.28;;;;;;;;;;5044194;28;20045;-74
2022/05/08 00:37:08;;;;;;;7.65;2.20;;;;;;;;;;5027519;28;20179;-74
2022/05/08 00:39:34;;;;;;;7.28;1.92;;;;;;;;;;5043715;28;20045;-74
2022/05/08 00:42:00;;;;;;;8.43;2.13;;;;;;;;;;5044458;28;20044;-74
2022/05/08 00:44:26;;;;;;;7.80;2.10;;;;;;;;;;5044192;28;20045;-74
2022/05/08 00:46:52;;;;;;;7.95;2.13;;;;;;;;;;5044045;28;20067;-68
2022/05/08 00:49:18;;;;;;;7.95;1.88;;;;;;;;;;5026337;28;20052;-68
2022/05/08 00:51:48;;;;;;;8.32;2.13;;;;;;;;;;5043563;28;20032;-68
2022/05/08 00:54:15;;;;;;;5.72;1.80;;;;;;;;;;5040800;28;20578;-68
2022/05/08 00:56:41;;;;;;;6.32;1.95;;;;;;;;;;5063220;28;20125;-68
2022/05/08 00:59:08;;;;;;;8.32;2.30;;;;;;;;;;5063202;28;20032;-68
2022/05/08 01:01:34;;;;;;;6.70;1.90;;;;;;;;;;5046695;28;20037;-69
2022/05/08 01:04:00;;;;;;;7.15;2.10;;;;;;;;;;5063110;28;20052;-68
2022/05/08 01:06:27;;;;;;;9.77;2.40;;;;;;;;;;5063311;28;20041;-74
2022/05/08 01:08:54;;;;;;;9.05;2.08;;;;;;;;;;5063689;28;20078;-74
2022/05/08 01:11:20;;;;;;;7.88;2.00;;;;;;;;;;5063046;28;20784;-73
2022/05/08 01:13:47;;;;;;;7.93;2.42;;;;;;;;;;5063397;28;20036;-74
2022/05/08 01:16:14;;;;;;;7.13;2.20;;;;;;;;;;5063408;28;20037;-74
2022/05/08 01:18:40;;;;;;;7.15;2.35;;;;;;;;;;5046477;28;20119;-74
2022/05/08 01:21:10;;;;;;;6.20;1.85;;;;;;;;;;5063155;28;20115;-74
2022/05/08 01:23:36;;;;;;;7.28;2.20;;;;;;;;;;5046893;28;20131;-74
2022/05/08 01:26:02;;;;;;;6.63;1.73;;;;;;;;;;5063872;28;20581;-74
2022/05/08 01:28:29;;;;;;;9.02;2.33;;;;;;;;;;5062287;28;20083;-73
2022/05/08 01:30:55;;;;;;;7.28;1.95;;;;;;;;;;5062856;28;20084;-73
2022/05/08 01:33:22;;;;;;;6.97;1.85;;;;;;;;;;5062955;28;20098;-73
2022/05/08 01:35:49;;;;;;;7.60;1.88;;;;;;;;;;5046206;28;20072;-74
2022/05/08 01:38:16;;;;;;;8.55;2.08;;;;;;;;;;5046403;28;20039;-73
2022/05/08 01:40:45;;;;;;;7.28;1.92;;;;;;;;;;5063268;28;20045;-73
2022/05/08 01:43:12;;;;;;;7.20;1.90;;;;;;;;;;5063569;28;20537;-73
2022/05/08 01:45:38;;;;;;;5.78;1.65;;;;;;;;;;5082932;28;20052;-73
2022/05/08 01:48:23;;;;;;;5.90;1.83;;;;;;;;;;5083169;28;20048;-73
2022/05/08 01:50:50;;;;;;;;;;;;;;;;;;5082824;28;20043;-73
2022/05/08 01:53:17;;;;;;;5.78;1.70;;;;;;;;;;5082835;28;19916;-73
2022/05/08 01:55:43;;;;;;;7.65;2.22;;;;;;;;;;5082776;28;20039;-73
2022/05/08 01:58:09;;;;;;;6.63;2.10;;;;;;;;;;5066087;28;20040;-73
2022/05/08 02:00:35;;;;;;;7.97;1.90;;;;;;;;;;5065826;28;20047;-73
2022/05/08 02:03:02;;;;;;;5.32;1.63;;;;;;;;;;5066304;28;20488;-73
2022/05/08 02:05:29;;;;;;;6.85;1.60;;;;;;;;;;5082519;28;20056;-73
2022/05/08 02:07:55;;;;;;;7.50;1.90;;;;;;;;;;5082704;28;20050;-74
2022/05/08 02:10:21;;;;;;;6.03;1.70;;;;;;;;;;5082896;28;20118;-73
2022/05/08 02:12:47;;;;;;;6.40;1.65;;;;;;;;;;5065888;28;20200;-73
2022/05/08 02:15:17;;;;;;;5.40;1.70;;;;;;;;;;5082589;28;20559;-73
2022/05/08 02:17:43;;;;;;;6.40;1.90;;;;;;;;;;5082765;28;20028;-74
2022/05/08 02:20:09;;;;;;;6.95;1.83;;;;;;;;;;5062422;28;20048;-74
2022/05/08 02:22:37;;;;;;;6.65;1.85;;;;;;;;;;5061864;28;20493;-74
2022/05/08 02:25:03;;;;;;;6.80;1.85;;;;;;;;;;5041876;28;20564;-73
2022/05/08 02:27:39;;;;;;;7.00;2.00;;;;;;;;;;5029556;28;21037;-74
2022/05/08 02:30:06;;;;;;;7.13;1.90;;;;;;;;;;5055398;28;20044;-73
2022/05/08 02:32:32;;;;;;;6.18;1.90;;;;;;;;;;5062194;28;20755;-74
2022/05/08 02:34:58;;;;;;;5.22;1.75;;;;;;;;;;5045135;28;20041;-73
2022/05/08 02:37:24;;;;;;;6.80;1.50;;;;;;;;;;5045695;28;20040;-73
2022/05/08 02:39:50;;;;;;;6.60;1.60;;;;;;;;;;5062046;28;20186;-73
2022/05/08 02:42:16;;;;;;;8.15;2.15;;;;;;;;;;5062085;28;20040;-73
2022/05/08 02:44:42;;;;;;;6.53;1.90;;;;;;;;;;5061967;28;20053;-74
2022/05/08 02:47:08;;;;;;;8.18;1.60;;;;;;;;;;5062184;28;20047;-73
2022/05/08 02:49:34;;;;;;;8.18;2.05;;;;;;;;;;5061979;28;20620;-74
2022/05/08 02:52:00;;;;;;;7.30;1.65;;;;;;;;;;5045442;28;20072;-74
2022/05/08 02:54:26;;;;;;;6.68;1.92;;;;;;;;;;5061725;28;20045;-73
2022/05/08 02:59:36;;;;;;;;;;;;;;;;;;5062890;28;20641;-74
2022/05/08 03:02:03;;;;;;;6.40;1.67;;;;;;;;;;5045979;28;19997;-74
2022/05/08 03:04:28;;;;;;;6.32;1.90;;;;;;;;;;5061537;28;20040;-73
2022/05/08 03:06:55;;;;;;;7.47;1.40;;;;;;;;;;5045460;28;20481;-74
2022/05/08 03:09:21;;;;;;;5.93;1.50;;;;;;;;;;5061774;28;20663;-73
2022/05/08 03:11:47;;;;;;;6.18;1.80;;;;;;;;;;5061933;28;20460;-73
2022/05/08 03:14:13;;;;;;;6.88;1.90;;;;;;;;;;5061973;28;20096;-73
2022/05/08 03:16:40;;;;;;;6.13;1.50;;;;;;;;;;5061995;28;20623;-74
2022/05/08 03:19:06;;;;;;;5.63;1.77;;;;;;;;;;5061585;28;20036;-73
2022/05/08 03:21:34;;;;;;;7.10;1.90;;;;;;;;;;5060985;28;20097;-74
2022/05/08 03:24:00;;;;;;;7.57;1.92;;;;;;;;;;5061794;28;20632;-73
2022/05/08 03:26:28;;;;;;;6.30;1.52;;;;;;;;;;5061362;28;20101;-73
2022/05/08 03:28:54;;;;;;;5.60;1.60;;;;;;;;;;5061295;28;20716;-73
2022/05/08 03:31:21;;;;;;;6.28;1.83;;;;;;;;;;5044832;28;20053;-73
2022/05/08 03:33:47;;;;;;;7.35;1.83;;;;;;;;;;5061787;28;20036;-73
2022/05/08 03:36:14;;;;;;;6.95;2.40;;;;;;;;;;5061979;28;20127;-73
2022/05/08 03:38:44;;;;;;;9.68;1.70;;;;;;;;;;5061523;28;20049;-74
2022/05/08 03:41:15;;;;;;;6.15;1.67;;;;;;;;;;5060813;28;20048;-74
2022/05/08 03:43:41;;;;;;;6.40;1.77;;;;;;;;;;5061294;28;20048;-74
2022/05/08 03:46:07;;;;;;;5.97;1.75;;;;;;;;;;5044419;28;20044;-73
2022/05/08 03:48:35;;;;;;;5.32;1.40;;;;;;;;;;5062009;28;20067;-73
2022/05/08 03:51:01;;;;;;;6.35;1.52;;;;;;;;;;5061441;28;20109;-73
2022/05/08 03:53:27;;;;;;;6.65;1.90;;;;;;;;;;5061694;28;20040;-73
2022/05/08 03:55:53;;;;;;;7.30;1.67;;;;;;;;;;5063780;28;20127;-73
2022/05/08 03:58:19;;;;;;;7.13;1.73;;;;;;;;;;5064465;28;20036;-73
2022/05/08 04:00:45;;;;;;;6.03;1.48;;;;;;;;;;5064474;28;20075;-73
2022/05/08 04:03:11;;;;;;;4.97;1.35;;;;;;;;;;5066045;28;20045;-74
2022/05/08 04:05:37;;;;;;;6.47;1.70;;;;;;;;;;5048815;28;20205;-74
2022/05/08 04:08:03;;;;;;;7.10;1.67;;;;;;;;;;5065114;28;20040;-74
2022/05/08 04:10:29;;;;;;;6.72;1.58;;;;;;;;;;5064197;28;20048;-74
2022/05/08 04:12:55;;;;;;;6.63;1.48;;;;;;;;;;5064794;28;20517;-74
2022/05/08 04:18:07;;;;;;;6.50;1.60;;;;;;;;;;5064970;28;20044;-73
2022/05/08 04:20:33;;;;;;;6.57;1.75;;;;;;;;;;5064467;28;20080;-73
2022/05/08 04:25:43;;;;;;;;;;;;;;;;;;5064710;28;20044;-73
2022/05/08 04:28:11;;;;;;;6.50;1.90;;;;;;;;;;5047691;28;20565;-73
2022/05/08 04:30:37;;;;;;;5.25;1.40;;;;;;;;;;5064253;28;20044;-73
2022/05/08 04:33:03;;;;;;;5.97;1.70;;;;;;;;;;5064392;28;20049;-74
2022/05/08 04:35:29;;;;;;;5.45;1.65;;;;;;;;;;5064615;28;20048;-73
2022/05/08 04:37:55;;;;;;;6.35;1.80;;;;;;;;;;5064285;28;20105;-74
2022/05/08 04:40:21;;;;;;;6.13;1.75;;;;;;;;;;5046758;28;20089;-74
2022/05/08 04:42:47;;;;;;;3.67;1.20;;;;;;;;;;5064471;28;20489;-74
2022/05/08 04:45:13;;;;;;;4.97;1.63;;;;;;;;;;5047032;28;20074;-74
2022/05/08 04:47:39;;;;;;;6.20;1.38;;;;;;;;;;5047523;28;20418;-74
2022/05/08 04:50:05;;;;;;;5.55;1.65;;;;;;;;;;5063860;28;20097;-74
2022/05/08 04:52:31;;;;;;;5.88;1.40;;;;;;;;;;5062362;28;20558;-74
2022/05/08 04:54:58;;;;;;;5.32;1.40;;;;;;;;;;5079118;28;20044;-74
2022/05/08 04:57:24;;;;;;;5.35;1.42;;;;;;;;;;5073845;28;20593;-74
2022/05/08 04:59:50;;;;;;;5.68;1.58;;;;;;;;;;5071305;28;20047;-73
2022/05/08 05:02:15;;;;;;;4.72;1.70;;;;;;;;;;5084352;28;20040;-74
2022/05/08 05:04:42;;;;;;;6.30;1.80;;;;;;;;;;5083843;28;20177;-74
2022/05/08 05:07:08;;;;;;;5.03;1.40;;;;;;;;;;5083510;28;20071;-74
2022/05/08 05:09:34;;;;;;;5.57;1.40;;;;;;;;;;5052345;28;20572;-74
2022/05/08 05:12:02;;;;;;;6.30;1.58;;;;;;;;;;5063506;28;20190;-74
2022/05/08 05:14:31;;;;;;;6.07;1.42;;;;;;;;;;5063767;28;20040;-77
2022/05/08 05:16:58;;;;;;;6.30;1.50;;;;;;;;;;5063181;28;20036;-74
2022/05/08 05:19:24;;;;;;;5.57;1.60;;;;;;;;;;5063344;28;20044;-73
2022/05/08 05:21:50;;;;;;;5.10;1.20;;;;;;;;;;5063167;28;20048;-74
2022/05/08 05:24:15;;;;;;;5.13;1.15;;;;;;;;;;5063371;28;20051;-74
2022/05/08 05:26:41;;;;;;;4.72;1.30;;;;;;;;;;5046668;28;20120;-73
2022/05/08 05:29:08;;;;;;;5.05;1.20;;;;;;;;;;5062925;28;20037;-74
2022/05/08 05:31:34;;;;;;;4.40;1.27;;;;;;;;;;5062719;28;20590;-74
2022/05/08 05:34:00;;;;;;;4.18;1.20;;;;;;;;;;5063192;28;20051;-73
2022/05/08 05:36:26;;;;;;;5.80;1.60;;;;;;;;;;5062738;28;20037;-73
2022/05/08 05:38:52;;;;;;;4.43;1.40;;;;;;;;;;5062291;28;20405;-73
2022/05/08 05:41:18;;;;;;;5.80;1.48;;;;;;;;;;5062581;28;20045;-73
2022/05/08 05:43:44;;;;;;;5.20;1.23;;;;;;;;;;5064474;28;20613;-73
2022/05/08 05:48:54;;;;;;;;;;;;;;;;;;5083485;28;20114;-73
2022/05/08 05:51:20;;;;;;;5.40;1.52;;;;;;;;;;5083291;28;20603;-73
2022/05/08 05:53:46;;;;;;;6.10;1.40;;;;;;;;;;5083085;28;20039;-73
2022/05/08 05:56:12;;;;;;;3.42;1.10;;;;;;;;;;5082562;28;20038;-73
2022/05/08 05:58:38;;;;;;;5.95;1.77;;;;;;;;;;5082730;28;20123;-73
2022/05/08 06:01:04;;;;;;;4.82;1.40;;;;;;;;;;5082969;28;20052;-73
2022/05/08 06:03:32;;;;;;;3.55;1.20;;;;;;;;;;5082978;28;20630;-73
2022/05/08 06:05:58;;;;;;;4.35;1.40;;;;;;;;;;5082293;28;20044;-73
2022/05/08 06:08:24;;;;;;;5.75;1.30;;;;;;;;;;5065664;28;20050;-68
2022/05/08 06:10:50;;;;;;;4.63;1.25;;;;;;;;;;5065385;28;20113;-68
2022/05/08 06:13:17;;;;;;;4.53;1.15;;;;;;;;;;5065614;28;20040;-68
2022/05/08 06:15:43;;;;;;;6.55;1.65;;;;;;;;;;5082496;28;20115;-68
2022/05/08 06:18:09;;;;;;;4.38;1.20;;;;;;;;;;5081735;28;20123;-68
2022/05/08 06:20:35;;;;;;;4.75;1.38;;;;;;;;;;5082397;28;20048;-68
2022/05/08 06:23:01;;;;;;;4.78;1.35;;;;;;;;;;5082473;28;20040;-68
2022/05/08 06:25:27;;;;;;;6.40;1.13;;;;;;;;;;5082014;28;20047;-68
2022/05/08 06:27:53;;;;;;;6.35;1.25;;;;;;;;;;5052856;28;20513;-68
2022/05/08 06:30:19;;;;;;;5.38;1.35;;;;;;;;;;5061156;28;20045;-68
2022/05/08 06:32:45;;;;;;;5.43;1.30;;;;;;;;;;5060213;28;20080;-68
2022/05/08 06:35:11;;;;;;;4.22;1.10;;;;;;;;;;5061924;28;20080;-68
2022/05/08 06:37:37;;;;;;;4.00;1.10;;;;;;;;;;5061856;28;20653;-67
2022/05/08 06:40:03;;;;;;;4.38;1.10;;;;;;;;;;5044408;28;20127;-68
2022/05/08 06:42:31;;;;;;;6.45;1.30;;;;;;;;;;5062419;28;20053;-68
2022/05/08 06:44:57;;;;;;;3.97;1.17;;;;;;;;;;5061597;28;20071;-68
2022/05/08 06:47:22;;;;;;;4.97;1.30;;;;;;;;;;5061879;28;20619;-68
2022/05/08 06:49:48;;;;;;;5.63;1.30;;;;;;;;;;5061196;28;20068;-68
2022/05/08 06:52:14;;;;;;;4.05;1.10;;;;;;;;;;5061604;28;20045;-68
2022/05/08 06:54:40;;;;;;;4.95;1.25;;;;;;;;;;5061846;28;20635;-68
2022/05/08 06:57:06;;;;;;;4.43;1.30;;;;;;;;;;5061034;28;20040;-68
2022/05/08 07:02:17;;;;;;;5.40;1.42;;;;;;;;;;5081829;28;20130;-68
2022/05/08 07:04:43;;;;;;;5.38;1.70;;;;;;;;;;5081309;28;20123;-68
2022/05/08 07:07:09;;;;;;;4.50;1.20;;;;;;;;;;5081889;28;20142;-68
2022/05/08 07:09:35;;;;;;;4.88;1.27;;;;;;;;;;5081568;28;20662;-68
2022/05/08 07:12:01;;;;;;;7.43;1.50;;;;;;;;;;5082375;28;20115;-68
2022/05/08 07:14:27;;;;;;;6.50;1.48;;;;;;;;;;5064699;28;20104;-68
2022/05/08 07:16:53;;;;;;;5.93;1.42;;;;;;;;;;5081930;28;20668;-68
2022/05/08 07:19:19;;;;;;;4.03;1.10;;;;;;;;;;5081507;28;20181;-68
2022/05/08 07:21:45;;;;;;;4.65;1.40;;;;;;;;;;5081943;28;20660;-68
2022/05/08 07:24:11;;;;;;;3.55;1.00;;;;;;;;;;5081642;28;20131;-68
2022/05/08 07:26:37;;;;;;;4.40;1.20;;;;;;;;;;5081915;28;20040;-68
2022/05/08 07:29:07;;;;;;;4.15;1.17;;;;;;;;;;5065374;28;20039;-68
2022/05/08 07:31:33;;;;;;;5.07;1.33;;;;;;;;;;5085201;28;20105;-68
2022/05/08 07:36:43;;;;;;;5.40;1.40;;;;;;;;;;5085428;28;20040;-68
2022/05/08 07:39:09;;;;;;;5.55;1.30;;;;;;;;;;5076335;28;20155;-68
2022/05/08 07:41:36;;;;;;;5.50;1.15;;;;;;;;;;5061989;28;20043;-68
2022/05/08 07:44:02;;;;;;;6.15;1.10;;;;;;;;;;5064647;28;20037;-68
2022/05/08 07:46:29;;;;;;;6.85;1.65;;;;;;;;;;5064576;28;20098;-68
2022/05/08 07:48:55;;;;;;;6.25;1.40;;;;;;;;;;5074567;28;20710;-68
2022/05/08 07:51:21;;;;;;;5.07;1.35;;;;;;;;;;5063973;28;20148;-68
2022/05/08 07:53:47;;;;;;;4.75;1.35;;;;;;;;;;5050226;28;20986;-68
2022/05/08 07:56:13;;;;;;;4.03;1.17;;;;;;;;;;5081682;28;20073;-68
2022/05/08 07:58:39;;;;;;;6.28;1.25;;;;;;;;;;5084268;28;20124;-68
2022/05/08 08:01:05;;;;;;;5.57;1.33;;;;;;;;;;5084926;28;20044;-68
2022/05/08 08:03:32;;;;;;;4.93;1.40;;;;;;;;;;5084682;28;20050;-68
2022/05/08 08:05:58;;;;;;;4.95;1.10;;;;;;;;;;5084535;28;20051;-68
2022/05/08 08:08:25;;;;;;;5.45;1.33;;;;;;;;;;5084748;28;20075;-68
2022/05/08 08:10:58;;;;;;;5.80;1.40;;;;;;;;;;5066984;28;20513;-68
2022/05/08 08:13:26;;;;;;;2.58;0.90;;;;;;;;;;5084577;28;20123;-68
2022/05/08 08:15:53;;;;;;;4.80;1.13;;;;;;;;;;5084474;28;20163;-68
2022/05/08 08:18:19;;;;;;;4.22;1.20;;;;;;;;;;5067285;28;20082;-68
2022/05/08 08:20:45;;;;;;;6.80;1.38;;;;;;;;;;5083941;28;20043;-68
2022/05/08 08:23:12;;;;;;;5.65;1.30;;;;;;;;;;5084853;28;20381;-68
2022/05/08 08:25:38;;;;;;;4.65;1.23;;;;;;;;;;5084300;28;20035;-68
2022/05/08 08:28:04;;;;;;;5.30;1.45;;;;;;;;;;5084275;28;20048;-68
2022/05/08 08:30:30;;;;;;;4.85;1.30;;;;;;;;;;5084294;28;20604;-68
2022/05/08 08:32:56;;;;;;;5.68;1.20;;;;;;;;;;5084023;28;20532;-68
2022/05/08 08:35:23;;;;;;;3.75;1.08;;;;;;;;;;5084153;28;20036;-68
2022/05/08 08:37:49;;;;;;;3.72;1.17;;;;;;;;;;5083992;28;20044;-68
2022/05/08 08:40:15;;;;;;;5.32;1.30;;;;;;;;;;5061315;28;20238;-68
2022/05/08 08:42:42;;;;;;;4.50;1.10;;;;;;;;;;5042491;28;20044;-68
2022/05/08 08:47:56;;;;;;;5.18;1.15;;;;;;;;;;5068164;28;20097;-68
2022/05/08 08:50:26;;;;;;;3.53;1.10;;;;;;;;;;5063365;28;20048;-68
2022/05/08 08:52:59;;;;;;;5.47;1.45;;;;;;;;;;5063541;28;20080;-68
2022/05/08 08:55:25;;;;;;;3.95;1.25;;;;;;;;;;5063142;28;20045;-68
2022/05/08 08:57:51;;;;;;;4.85;1.25;;;;;;;;;;5063858;28;20048;-68
2022/05/08 09:00:18;;;;;;;4.70;1.27;;;;;;;;;;5046302;28;20048;-67
2022/05/08 09:02:47;;;;;;;5.47;1.35;;;;;;;;;;5042869;28;20582;-68
2022/05/08 09:05:13;;;;;;;3.97;1.05;;;;;;;;;;5025387;28;20805;-68
2022/05/08 09:07:46;;;;;;;7.43;1.30;;;;;;;;;;5026541;28;20041;-68
2022/05/08 09:10:12;;;;;;;5.50;1.50;;;;;;;;;;5026782;28;20045;-68
2022/05/08 09:12:39;;;;;;;4.95;1.17;;;;;;;;;;5052087;28;20047;-68
2022/05/08 09:15:20;;;;;;;4.38;1.10;;;;;;;;;;5083597;28;20085;-68
2022/05/08 09:17:47;;;;;;;3.97;0.90;;;;;;;;;;5083681;28;20032;-68
2022/05/08 09:20:33;;;;;;;5.25;1.30;;;;;;;;;;5083392;28;20524;-68
2022/05/08 09:23:07;;;;;;;4.63;1.33;;;;;;;;;;5083177;28;20056;-68
2022/05/08 09:25:43;;;;;;;5.57;1.50;;;;;;;;;;5066535;28;20055;-68
2022/05/08 09:28:10;;;;;;;5.10;1.35;;;;;;;;;;5083092;28;20274;-68
2022/05/08 09:30:52;;;;;;;4.40;1.40;;;;;;;;;;5082873;28;20690;-69
2022/05/08 09:33:24;;;;;;;3.92;1.25;;;;;;;;;;5083250;28;20564;-69
2022/05/08 09:35:50;;;;;;;4.85;1.25;;;;;;;;;;5082985;28;20131;-69
2022/05/08 09:38:17;;;;;;;4.70;1.27;;;;;;;;;;5065672;28;20225;-68
2022/05/08 09:40:44;;;;;;;6.07;1.83;;;;;;;;;;5082604;28;20173;-69
2022/05/08 09:43:28;;;;;;;4.30;1.27;;;;;;;;;;5065039;28;20048;-68
2022/05/08 09:45:58;;;;;;;3.45;1.10;;;;;;;;;;5048439;28;20059;-68
2022/05/08 09:48:26;;;;;;;5.50;1.27;;;;;;;;;;5046457;28;20040;-68
2022/05/08 09:50:54;;;;;;;3.83;1.10;;;;;;;;;;5032093;28;20033;-68
2022/05/08 09:53:21;;;;;;;5.55;1.10;;;;;;;;;;5043885;28;20064;-68
2022/05/08 09:55:47;;;;;;;6.15;1.30;;;;;;;;;;5051980;28;20032;-67
2022/05/08 09:58:13;;;;;;;5.28;1.40;;;;;;;;;;5052513;28;20032;-68
2022/05/08 10:00:40;;;;;;;5.05;1.20;;;;;;;;;;5058427;28;20097;-68
2022/05/08 10:03:07;;;;;;;3.15;1.20;;;;;;;;;;5057528;28;20102;-68
2022/05/08 10:05:33;;;;;;;4.20;1.10;;;;;;;;;;5052688;28;20734;-68
2022/05/08 10:08:00;;;;;;;5.65;1.25;;;;;;;;;;5062216;28;20052;-68
2022/05/08 10:15:56;;;;;;;5.15;1.38;;;;;;;;;;5062246;28;20521;-68
2022/05/08 10:18:27;;;;;;;4.05;1.25;;;;;;;;;;5061973;28;20074;-68
2022/05/08 10:20:59;;;;;;;6.20;1.55;;;;;;;;;;5062046;28;20578;-68
2022/05/08 10:23:37;;;;;;;6.22;1.20;;;;;;;;;;5061982;28;20037;-68
2022/05/08 10:26:16;;;;;;;5.72;1.30;;;;;;;;;;5061301;28;20763;-68
2022/05/08 10:29:18;;;;;;;6.22;1.63;;;;;;;;;;5044967;28;20127;-68
2022/05/08 10:31:47;;;;;;;6.88;1.48;;;;;;;;;;5021246;28;20693;-68
2022/05/08 10:34:14;;;;;;;5.03;1.35;;;;;;;;;;5053779;28;20052;-68
2022/05/08 10:36:43;;;;;;;4.25;1.42;;;;;;;;;;5061571;28;20402;-68
2022/05/08 10:39:29;;;;;;;5.70;1.20;;;;;;;;;;5061969;28;20706;-67
2022/05/08 10:41:56;;;;;;;7.47;1.48;;;;;;;;;;5038079;28;20137;-67
2022/05/08 10:44:42;;;;;;;9.10;1.42;;;;;;;;;;5062098;28;20044;-67
2022/05/08 10:47:31;;;;;;;8.23;1.88;;;;;;;;;;5061884;28;20054;-68
2022/05/08 10:49:57;;;;;;;7.55;1.42;;;;;;;;;;5044042;28;20592;-67
2022/05/08 10:52:23;;;;;;;10.82;1.95;;;;;;;;;;5040487;28;20036;-68
2022/05/08 10:54:56;;;;;;;9.13;1.92;;;;;;;;;;5061456;28;20074;-68
2022/05/08 10:57:32;;;;;;;6.85;1.58;;;;;;;;;;5052121;28;20408;-68
2022/05/08 10:59:59;;;;;;;8.32;1.65;;;;;;;;;;5048103;28;20121;-68
2022/05/08 11:02:41;;;;;;;8.30;2.17;;;;;;;;;;5054142;28;20043;-68
2022/05/08 11:05:07;;;;;;;8.43;1.40;;;;;;;;;;5044317;28;20055;-68
2022/05/08 11:07:34;;;;;;;11.10;1.75;;;;;;;;;;5047852;28;20692;-68
2022/05/08 11:10:00;;;;;;;8.60;2.10;;;;;;;;;;5030509;28;20087;-68
2022/05/08 11:12:26;;;;;;;5.57;1.33;;;;;;;;;;5048050;28;20713;-68
2022/05/08 11:15:07;;;;;;;10.20;2.30;;;;;;;;;;5061117;28;20549;-69
2022/05/08 11:17:33;;;;;;;10.73;2.00;;;;;;;;;;5044536;28;20573;-69
2022/05/08 11:19:59;;;;;;;19.00;2.65;;;;;;;;;;5032476;28;20523;-69
2022/05/08 11:22:25;;;;;;;16.40;2.13;;;;;;;;;;5065540;28;20040;-69
2022/05/08 11:24:51;;;;;;;11.95;2.40;;;;;;;;;;5084813;28;20643;-68
2022/05/08 11:27:17;;;;;;;9.02;1.70;;;;;;;;;;5085019;28;20044;-69
2022/05/08 11:29:47;;;;;;;7.20;1.70;;;;;;;;;;5084646;28;20044;-69
2022/05/08 11:37:42;;;;;;;8.48;1.80;;;;;;;;;;5059635;28;19916;-69
2022/05/08 11:40:09;;;;;;;7.93;1.42;;;;;;;;;;5083500;28;20050;-69
2022/05/08 11:42:38;;;;;;;9.25;1.92;;;;;;;;;;5066799;28;20124;-68
2022/05/08 11:45:05;;;;;;;8.00;1.80;;;;;;;;;;5046747;28;20040;-69
2022/05/08 11:47:31;;;;;;;9.73;1.48;;;;;;;;;;5047005;28;20067;-69
2022/05/08 11:49:57;;;;;;;10.38;1.90;;;;;;;;;;5063758;28;20049;-69
2022/05/08 11:52:23;;;;;;;7.22;2.70;;;;;;;;;;5063528;28;20109;-68
2022/05/08 11:55:00;;;;;;;10.07;1.90;;;;;;;;;;5062603;28;20132;-69
2022/05/08 11:57:26;;;;;;;9.05;1.75;;;;;;;;;;5064452;28;20641;-68
2022/05/08 11:59:52;;;;;;;7.72;1.73;;;;;;;;;;5063975;28;20040;-69
2022/05/08 12:02:19;;;;;;;6.55;1.55;;;;;;;;;;5063937;28;20079;-69
2022/05/08 12:04:52;;;;;;;7.35;1.88;;;;;;;;;;5063790;28;20048;-68
2022/05/08 12:07:18;;;;;;;7.38;1.70;;;;;;;;;;5048066;28;20051;-69
2022/05/08 12:09:44;;;;;;;7.70;1.50;;;;;;;;;;5046631;28;20036;-68
2022/05/08 12:12:29;;;;;;;6.40;1.88;;;;;;;;;;5063675;28;20040;-69
2022/05/08 12:14:59;;;;;;;7.80;1.55;;;;;;;;;;5063678;28;20116;-69
2022/05/08 12:17:26;;;;;;;6.63;1.60;;;;;;;;;;5062525;28;20043;-69
2022/05/08 12:19:52;;;;;;;6.60;1.42;;;;;;;;;;5063799;28;20041;-69
2022/05/08 12:22:19;;;;;;;6.43;1.70;;;;;;;;;;5064044;28;20624;-70
2022/05/08 12:24:45;;;;;;;8.68;1.55;;;;;;;;;;5064068;28;20123;-69
2022/05/08 12:27:11;;;;;;;10.27;1.88;;;;;;;;;;5063748;28;20101;-69
2022/05/08 12:29:38;;;;;;;8.75;1.73;;;;;;;;;;5062803;28;20528;-68
2022/05/08 12:32:04;;;;;;;10.82;2.30;;;;;;;;;;5063165;28;20060;-67
2022/05/08 12:34:30;;;;;;;12.07;2.35;;;;;;;;;;5050415;28;20079;-67
2022/05/08 12:36:56;;;;;;;10.50;2.10;;;;;;;;;;5060326;28;20515;-68
2022/05/08 12:39:22;;;;;;;12.52;2.20;;;;;;;;;;5046222;28;20043;-68
2022/05/08 12:41:48;;;;;;;14.70;2.03;;;;;;;;;;5063181;28;20605;-67
2022/05/08 12:44:14;;;;;;;9.13;2.15;;;;;;;;;;5045077;28;20040;-68
2022/05/08 12:46:40;;;;;;;8.60;1.98;;;;;;;;;;5041820;28;20052;-68
2022/05/08 12:49:08;;;;;;;11.38;2.70;;;;;;;;;;5027817;28;20039;-67
2022/05/08 12:51:35;;;;;;;12.43;2.30;;;;;;;;;;5043436;28;20068;-67
2022/05/08 12:54:02;;;;;;;9.25;2.00;;;;;;;;;;5032894;28;20680;-67
2022/05/08 12:56:29;;;;;;;9.43;2.42;;;;;;;;;;5036562;28;20632;-68
2022/05/08 13:01:39;;;;;;;12.90;2.20;;;;;;;;;;5040501;28;20060;-67
2022/05/08 13:04:06;;;;;;;9.13;1.90;;;;;;;;;;5042406;28;20095;-68
2022/05/08 13:06:33;;;;;;;12.40;2.40;;;;;;;;;;5041275;28;20640;-67
2022/05/08 13:08:59;;;;;;;12.68;2.17;;;;;;;;;;5040790;28;20131;-67
2022/05/08 13:11:25;;;;;;;11.70;2.10;;;;;;;;;;5034548;28;20134;-68
2022/05/08 13:13:51;;;;;;;9.27;2.35;;;;;;;;;;5039188;28;20100;-67
2022/05/08 13:16:18;;;;;;;9.50;2.25;;;;;;;;;;5026657;28;20257;-68
2022/05/08 13:18:44;;;;;;;11.60;3.10;;;;;;;;;;5040716;28;20095;-68
2022/05/08 13:21:12;;;;;;;14.52;2.45;;;;;;;;;;5023699;28;20053;-68
2022/05/08 13:23:38;;;;;;;9.30;2.00;;;;;;;;;;5042585;28;21307;-68
2022/05/08 13:26:04;;;;;;;9.55;2.28;;;;;;;;;;5024786;28;20056;-68
2022/05/08 13:28:32;;;;;;;10.05;2.58;;;;;;;;;;5040539;28;20675;-74
2022/05/08 13:30:59;;;;;;;10.43;1.88;;;;;;;;;;5041278;28;20060;-73
2022/05/08 13:33:26;;;;;;;10.55;2.38;;;;;;;;;;5042691;28;20060;-74
2022/05/08 13:35:53;;;;;;;12.35;2.65;;;;;;;;;;5043040;28;20048;-68
2022/05/08 13:38:20;;;;;;;11.80;2.30;;;;;;;;;;5039939;28;20078;-68
2022/05/08 13:40:48;;;;;;;12.88;2.40;;;;;;;;;;5024497;28;20147;-68
2022/05/08 13:43:14;;;;;;;10.05;2.20;;;;;;;;;;5042026;28;20661;-68
2022/05/08 13:45:41;;;;;;;10.90;2.13;;;;;;;;;;5042479;28;20122;-68
2022/05/08 13:48:07;;;;;;;12.75;2.47;;;;;;;;;;5039808;28;20045;-68
2022/05/08 13:50:33;;;;;;;10.68;2.42;;;;;;;;;;5038451;28;20128;-68
2022/05/08 13:52:59;;;;;;;9.27;1.98;;;;;;;;;;5041000;28;20547;-68
2022/05/08 13:55:26;;;;;;;10.05;2.05;;;;;;;;;;5036513;28;20103;-68
2022/05/08 13:57:55;;;;;;;9.18;2.03;;;;;;;;;;5016260;28;20036;-68
2022/05/08 14:00:21;;;;;;;7.75;2.05;;;;;;;;;;5043449;28;20985;-68
2022/05/08 14:02:48;;;;;;;6.28;1.90;;;;;;;;;;5037760;28;20043;-68
2022/05/08 14:05:14;;;;;;;7.82;2.45;;;;;;;;;;5037963;28;20079;-68
2022/05/08 14:07:41;;;;;;;8.18;1.90;;;;;;;;;;5039900;28;20749;-68
2022/05/08 14:10:09;;;;;;;9.63;2.25;;;;;;;;;;5022178;28;20141;-68
2022/05/08 14:12:35;;;;;;;8.63;1.92;;;;;;;;;;5023955;28;20068;-68
2022/05/08 14:15:01;;;;;;;8.48;1.90;;;;;;;;;;5024985;28;20040;-68
2022/05/08 14:17:27;;;;;;;7.65;2.10;;;;;;;;;;5041559;28;20091;-67
2022/05/08 14:19:53;;;;;;;7.68;1.90;;;;;;;;;;5037608;28;20101;-68
2022/05/08 14:22:19;;;;;;;5.70;1.70;;;;;;;;;;5040955;28;20126;-68
2022/05/08 14:24:45;;;;;;;8.20;1.83;;;;;;;;;;5041833;28;20051;-68
2022/05/08 14:27:11;;;;;;;9.32;1.90;;;;;;;;;;5037959;28;20040;-68
2022/05/08 14:29:38;;;;;;;7.45;1.80;;;;;;;;;;5012878;28;21178;-68
2022/05/08 14:37:34;;;;;;;7.28;1.90;;;;;;;;;;5040482;28;20056;-68
2022/05/08 14:40:00;;;;;;;5.63;1.60;;;;;;;;;;5038312;28;20071;-68
2022/05/08 14:42:26;;;;;;;7.38;2.00;;;;;;;;;;5041050;28;20052;-68
2022/05/08 14:44:52;;;;;;;6.68;1.60;;;;;;;;;;5025386;28;20061;-68
2022/05/08 14:47:19;;;;;;;7.20;1.70;;;;;;;;;;5041255;28;20181;-68
2022/05/08 14:49:45;;;;;;;7.37;1.50;;;;;;;;;;5038436;28;20048;-68
2022/05/08 14:52:12;;;;;;;8.90;1.88;;;;;;;;;;5024015;28;20044;-68
2022/05/08 14:54:38;;;;;;;6.80;1.63;;;;;;;;;;5041061;28;20099;-68
2022/05/08 14:57:04;;;;;;;12.52;1.98;;;;;;;;;;5039911;28;20037;-68
2022/05/08 14:59:30;;;;;;;5.22;1.55;;;;;;;;;;5037839;28;20693;-68
2022/05/08 15:01:56;;;;;;;9.32;1.95;;;;;;;;;;5040403;28;20622;-68
2022/05/08 15:04:22;;;;;;;7.78;1.80;;;;;;;;;;5042903;28;20711;-68
2022/05/08 15:06:48;;;;;;;7.85;2.05;;;;;;;;;;5040364;28;20473;-68
2022/05/08 15:09:14;;;;;;;14.07;2.22;;;;;;;;;;5021430;28;20045;-68
2022/05/08 15:11:42;;;;;;;9.43;2.55;;;;;;;;;;5036029;28;20494;-68
2022/05/08 15:14:08;;;;;;;12.40;2.55;;;;;;;;;;5039877;28;20063;-68
2022/05/08 15:16:34;;;;;;;8.05;1.88;;;;;;;;;;5024165;28;20052;-68
2022/05/08 15:19:02;;;;;;;10.68;2.25;;;;;;;;;;5020781;28;21204;-68
2022/05/08 15:21:29;;;;;;;7.32;1.88;;;;;;;;;;5040692;28;20068;-69